createdAt,value
2023-04-10T00:00:12.235Z,102121.09
2023-04-10T00:04:14.641Z,102113.72
2023-04-10T00:08:16.331Z,102111.59
2023-04-10T00:12:18.145Z,102105.69
2023-04-10T00:16:20.094Z,102111.25
2023-04-10T00:20:22.969Z,102105.63
2023-04-10T00:24:24.515Z,102106.94
2023-04-10T00:28:25.996Z,102096.94
2023-04-10T00:32:27.461Z,102089.19
2023-04-10T00:36:28.921Z,102084.78
2023-04-10T00:40:30.503Z,102078.75
2023-04-10T00:44:31.996Z,102078.78
2023-04-10T00:48:34.447Z,102079.84
2023-04-10T00:52:36.150Z,102074.47
2023-04-10T00:56:37.815Z,102071.25
2023-04-10T01:00:39.324Z,102069.84
2023-04-10T01:04:42.062Z,102063.69
2023-04-10T01:09:00.760Z,102058.19
2023-04-10T01:13:16.339Z,102075.34
2023-04-10T01:17:30.601Z,102081.88
2023-04-10T01:21:36.472Z,102072.22
2023-04-10T01:25:56.559Z,102068.28
2023-04-10T01:30:02.618Z,102070.81
2023-04-10T01:34:16.275Z,102069.06
2023-04-10T01:38:20.670Z,102070.34
2023-04-10T01:42:23.883Z,102067.72
2023-04-10T01:46:27.360Z,102068.06
2023-04-10T01:50:30.538Z,102066.38
2023-04-10T01:54:33.449Z,102066.88
2023-04-10T01:58:35.910Z,102067.19
2023-04-10T02:02:37.698Z,102063.09
2023-04-10T02:06:56.378Z,102066.28
2023-04-10T02:11:26.602Z,102072.00
2023-04-10T02:15:32.461Z,102069.19
2023-04-10T02:19:35.477Z,102064.50
2023-04-10T02:23:37.280Z,102062.75
2023-04-10T02:27:39.288Z,102060.66
2023-04-10T02:31:44.524Z,102052.75
2023-04-10T02:35:46.037Z,102059.50
2023-04-10T02:39:47.528Z,102068.41
2023-04-10T02:43:48.967Z,102062.91
2023-04-10T02:47:50.494Z,102070.69
2023-04-10T02:51:51.948Z,102062.84
2023-04-10T02:55:54.725Z,102061.09
2023-04-10T02:59:56.177Z,102061.31
2023-04-10T03:03:58.439Z,102074.00
2023-04-10T03:08:00.193Z,102069.56
2023-04-10T03:12:02.333Z,102063.00
2023-04-10T03:16:03.911Z,102059.00
2023-04-10T03:20:05.923Z,102071.34
2023-04-10T03:24:07.374Z,102057.88
2023-04-10T03:28:09.127Z,102055.44
2023-04-10T03:32:10.566Z,102059.72
2023-04-10T03:36:12.499Z,102057.88
2023-04-10T03:40:13.996Z,102059.56
2023-04-10T03:44:15.619Z,102065.47
2023-04-10T03:48:17.865Z,102058.47
2023-04-10T03:52:19.271Z,102063.31
2023-04-10T03:56:20.684Z,102058.69
2023-04-10T04:00:22.210Z,102062.28
2023-04-10T04:04:23.834Z,102064.28
2023-04-10T04:08:28.330Z,102065.03
2023-04-10T04:12:29.826Z,102060.63
2023-04-10T04:16:31.311Z,102064.16
2023-04-10T04:20:32.854Z,102059.38
2023-04-10T04:24:36.579Z,102064.50
2023-04-10T04:28:38.021Z,102070.41
2023-04-10T04:32:42.598Z,102073.72
2023-04-10T04:36:44.202Z,102064.97
2023-04-10T04:40:46.192Z,102065.34
2023-04-10T04:44:49.514Z,102065.78
2023-04-10T04:48:50.966Z,102067.19
2023-04-10T04:52:52.395Z,102072.75
2023-04-10T04:56:53.905Z,102068.00
2023-04-10T05:00:55.484Z,102066.38
2023-04-10T05:04:56.962Z,102069.41
2023-04-10T05:08:58.397Z,102069.72
2023-04-10T05:12:59.799Z,102075.00
2023-04-10T05:17:03.362Z,102070.53
2023-04-10T05:21:05.442Z,102069.81
2023-04-10T05:25:07.369Z,102074.97
2023-04-10T05:29:08.794Z,102083.38
2023-04-10T05:33:10.345Z,102084.34
2023-04-10T05:37:13.003Z,102083.59
2023-04-10T05:41:14.610Z,102079.09
2023-04-10T05:45:16.175Z,102087.50
2023-04-10T05:49:17.606Z,102090.38
2023-04-10T05:53:20.219Z,102096.03
2023-04-10T05:57:21.718Z,102091.28
2023-04-10T06:01:23.193Z,102081.13
2023-04-10T06:05:24.718Z,102088.69
2023-04-10T06:09:26.244Z,102082.00
2023-04-10T06:13:27.865Z,102090.78
2023-04-10T06:17:29.798Z,102084.41
2023-04-10T06:21:31.765Z,102084.63
2023-04-10T06:25:33.349Z,102083.81
2023-04-10T06:29:34.909Z,102081.91
2023-04-10T06:33:39.246Z,102074.84
2023-04-10T06:37:40.727Z,102080.78
2023-04-10T06:41:42.201Z,102074.09
2023-04-10T06:45:43.719Z,102068.53
2023-04-10T06:49:45.275Z,102064.59
2023-04-10T06:53:47.120Z,102071.06
2023-04-10T06:57:48.555Z,102071.44
2023-04-10T07:01:49.992Z,102065.97
2023-04-10T07:05:51.532Z,102055.50
2023-04-10T07:09:52.989Z,102052.38
2023-04-10T07:13:58.552Z,102056.53
2023-04-10T07:18:00.121Z,102059.53
2023-04-10T07:22:01.675Z,102055.28
2023-04-10T07:26:03.090Z,102067.72
2023-04-10T07:30:05.260Z,102063.25
2023-04-10T07:34:07.063Z,102061.94
2023-04-10T07:38:08.647Z,102063.31
2023-04-10T07:42:11.336Z,102058.63
2023-04-10T07:46:12.883Z,102057.31
2023-04-10T07:50:14.428Z,102052.19
2023-04-10T07:54:15.920Z,102051.91
2023-04-10T07:58:17.419Z,102052.22
2023-04-10T08:02:18.962Z,102042.16
2023-04-10T08:06:20.883Z,102034.50
2023-04-10T08:10:22.581Z,102038.31
2023-04-10T08:14:24.085Z,102035.41
2023-04-10T08:18:25.624Z,102029.38
2023-04-10T08:22:27.069Z,102035.13
2023-04-10T08:26:29.187Z,102033.88
2023-04-10T08:30:30.829Z,102026.91
2023-04-10T08:34:32.296Z,102025.09
2023-04-10T08:38:34.052Z,102029.88
2023-04-10T08:42:36.375Z,102024.00
2023-04-10T08:46:42.978Z,102016.91
2023-04-10T08:50:46.119Z,102015.28
2023-04-10T08:54:50.740Z,102016.91
2023-04-10T08:58:53.005Z,102014.78
2023-04-10T09:02:58.193Z,102002.72
2023-04-10T09:07:00.614Z,102002.25
2023-04-10T09:11:02.327Z,101995.38
2023-04-10T09:15:04.103Z,101995.19
2023-04-10T09:19:06.585Z,101975.72
2023-04-10T09:23:22.296Z,101969.59
2023-04-10T09:27:35.496Z,101957.53
2023-04-10T09:31:38.943Z,101957.88
2023-04-10T09:35:40.976Z,101964.78
2023-04-10T09:39:43.682Z,101947.38
2023-04-10T09:43:46.193Z,101940.59
2023-04-10T09:48:05.792Z,101938.09
2023-04-10T09:52:20.310Z,101928.09
2023-04-10T09:56:23.021Z,101929.25
2023-04-10T10:00:26.584Z,101922.81
2023-04-10T10:04:28.882Z,101919.25
2023-04-10T10:08:33.146Z,101916.16
2023-04-10T10:12:43.999Z,101910.28
2023-04-10T10:16:56.644Z,101899.97
2023-04-10T10:20:59.197Z,101897.50
2023-04-10T10:25:02.379Z,101893.72
2023-04-10T10:29:06.924Z,101891.59
2023-04-10T10:33:10.243Z,101886.59
2023-04-10T10:37:12.778Z,101885.22
2023-04-10T10:41:21.215Z,101874.03
2023-04-10T10:45:34.658Z,101867.69
2023-04-10T10:49:51.962Z,101850.69
2023-04-10T10:53:53.454Z,101858.53
2023-04-10T10:57:56.201Z,101854.13
2023-04-10T11:02:17.792Z,101842.44
2023-04-10T11:06:21.467Z,101834.56
2023-04-10T11:11:00.494Z,101834.00
2023-04-10T11:15:04.942Z,101828.38
2023-04-10T11:19:14.281Z,101821.50
2023-04-10T11:23:20.369Z,101815.59
2023-04-10T11:27:51.564Z,101801.84
2023-04-10T11:32:01.545Z,101804.41
2023-04-10T11:36:03.675Z,101804.97
2023-04-10T11:40:06.318Z,101793.31
2023-04-10T11:44:10.774Z,101784.75
2023-04-10T11:48:12.290Z,101785.38
2023-04-10T11:52:24.206Z,101778.63
2023-04-10T11:56:25.649Z,101765.69
2023-04-10T12:00:27.060Z,101763.69
2023-04-10T12:04:28.762Z,101759.31
2023-04-10T12:08:31.684Z,101755.50
2023-04-10T12:12:37.053Z,101743.34
2023-04-10T12:16:38.700Z,101741.09
2023-04-10T12:20:40.411Z,101729.09
2023-04-10T12:24:48.797Z,101724.69
2023-04-10T12:28:55.052Z,101723.41
2023-04-10T12:32:57.513Z,101723.28
2023-04-10T12:36:59.019Z,101721.84
2023-04-10T12:41:01.474Z,101710.78
2023-04-10T12:45:03.413Z,101703.34
2023-04-10T12:49:16.340Z,101691.84
2023-04-10T12:53:18.006Z,101684.00
2023-04-10T12:57:28.353Z,101682.34
2023-04-10T13:01:29.806Z,101661.44
2023-04-10T13:05:31.363Z,101667.16
2023-04-10T13:09:32.821Z,101656.69
2023-04-10T13:13:34.259Z,101641.47
2023-04-10T13:17:35.880Z,101638.22
2023-04-10T13:21:37.454Z,101619.28
2023-04-10T13:25:40.243Z,101622.97
2023-04-10T13:29:42.939Z,101604.81
2023-04-10T13:33:48.718Z,101590.00
2023-04-10T13:37:53.087Z,101580.22
2023-04-10T13:41:54.592Z,101585.81
2023-04-10T13:45:56.098Z,101567.16
2023-04-10T13:49:57.534Z,101558.25
2023-04-10T13:53:59.080Z,101560.50
2023-04-10T13:58:00.545Z,101552.94
2023-04-10T14:02:02.177Z,101540.50
2023-04-10T14:06:03.905Z,101530.72
2023-04-10T14:10:06.928Z,101531.56
2023-04-10T14:14:08.678Z,101517.34
2023-04-10T14:18:10.284Z,101522.75
2023-04-10T14:22:12.536Z,101522.31
2023-04-10T14:26:14.018Z,101514.13
2023-04-10T14:30:15.518Z,101507.44
2023-04-10T14:34:17.059Z,101501.06
2023-04-10T14:38:18.580Z,101488.28
2023-04-10T14:42:20.122Z,101496.75
2023-04-10T14:46:21.580Z,101481.31
2023-04-10T14:50:23.039Z,101477.88
2023-04-10T14:54:24.582Z,101471.84
2023-04-10T14:58:26.083Z,101467.06
2023-04-10T15:02:28.206Z,101465.44
2023-04-10T15:06:32.311Z,101458.19
2023-04-10T15:10:33.734Z,101445.56
2023-04-10T15:14:35.246Z,101436.47
2023-04-10T15:18:36.682Z,101431.72
2023-04-10T15:22:38.214Z,101430.09
2023-04-10T15:26:46.291Z,101421.28
2023-04-10T15:30:49.713Z,101425.25
2023-04-10T15:34:51.237Z,101413.88
2023-04-10T15:38:52.706Z,101395.44
2023-04-10T15:42:54.141Z,101398.13
2023-04-10T15:46:55.600Z,101392.09
2023-04-10T15:50:57.007Z,101374.03
2023-04-10T15:54:58.550Z,101372.88
2023-04-10T15:59:00.162Z,101370.59
2023-04-10T16:03:01.828Z,101369.00
2023-04-10T16:07:03.448Z,101349.75
2023-04-10T16:11:05.372Z,101338.16
2023-04-10T16:15:08.360Z,101334.59
2023-04-10T16:19:10.067Z,101328.56
2023-04-10T16:23:11.616Z,101318.13
2023-04-10T16:27:13.097Z,101299.94
2023-04-10T16:31:14.591Z,101308.50
2023-04-10T16:35:18.062Z,101304.09
2023-04-10T16:39:19.724Z,101304.50
2023-04-10T16:43:23.164Z,101291.19
2023-04-10T16:47:25.503Z,101287.94
2023-04-10T16:51:27.378Z,101279.13
2023-04-10T16:55:28.916Z,101274.66
2023-04-10T16:59:30.476Z,101274.25
2023-04-10T17:03:33.552Z,101262.59
2023-04-10T17:07:35.051Z,101257.75
2023-04-10T17:11:36.539Z,101243.25
2023-04-10T17:15:38.010Z,101239.47
2023-04-10T17:19:39.580Z,101228.56
2023-04-10T17:23:41.495Z,101231.28
2023-04-10T17:27:42.914Z,101226.88
2023-04-10T17:31:44.571Z,101215.69
2023-04-10T17:35:46.113Z,101209.09
2023-04-10T17:39:47.607Z,101199.50
2023-04-10T17:43:49.206Z,101189.81
2023-04-10T17:47:50.692Z,101183.25
2023-04-10T17:51:52.271Z,101173.59
2023-04-10T17:55:53.669Z,101172.59
2023-04-10T17:59:55.232Z,101165.34
2023-04-10T18:04:02.696Z,101162.97
2023-04-10T18:08:04.434Z,101159.66
2023-04-10T18:12:05.961Z,101169.53
2023-04-10T18:16:08.250Z,101167.44
2023-04-10T18:20:10.420Z,101163.66
2023-04-10T18:24:12.125Z,101165.06
2023-04-10T18:28:15.552Z,101167.44
2023-04-10T18:32:17.988Z,101163.28
2023-04-10T18:36:21.519Z,101155.72
2023-04-10T18:40:23.969Z,101152.69
2023-04-10T18:44:25.464Z,101151.34
2023-04-10T18:48:27.004Z,101143.50
2023-04-10T18:52:28.478Z,101148.34
2023-04-10T18:56:30.491Z,101140.28
2023-04-10T19:00:33.956Z,101126.59
2023-04-10T19:04:35.599Z,101117.69
2023-04-10T19:08:37.367Z,101109.31
2023-04-10T19:12:40.338Z,101106.53
2023-04-10T19:16:41.973Z,101099.22
2023-04-10T19:20:49.082Z,101099.91
2023-04-10T19:24:54.385Z,101099.03
2023-04-10T19:28:56.148Z,101090.75
2023-04-10T19:32:57.987Z,101079.47
2023-04-10T19:36:59.569Z,101074.94
2023-04-10T19:41:01.111Z,101067.78
2023-04-10T19:45:04.477Z,101068.81
2023-04-10T19:49:06.063Z,101066.78
2023-04-10T19:53:07.734Z,101055.53
2023-04-10T19:57:09.313Z,101051.44
2023-04-10T20:01:11.878Z,101044.94
2023-04-10T20:05:13.651Z,101037.75
2023-04-10T20:09:16.137Z,101018.50
2023-04-10T20:13:17.541Z,101009.34
2023-04-10T20:17:19.087Z,101005.28
2023-04-10T20:21:21.896Z,101000.13
2023-04-10T20:25:23.327Z,100986.28
2023-04-10T20:29:24.829Z,100983.44
2023-04-10T20:33:26.318Z,100973.00
2023-04-10T20:37:27.830Z,100964.78
2023-04-10T20:41:29.348Z,100957.91
2023-04-10T20:45:31.035Z,100967.94
2023-04-10T20:49:32.706Z,100965.50
2023-04-10T20:53:34.153Z,100957.81
2023-04-10T20:57:35.672Z,100974.81
2023-04-10T21:01:37.343Z,100955.00
2023-04-10T21:05:41.423Z,100964.44
2023-04-10T21:09:42.977Z,100955.59
2023-04-10T21:13:44.394Z,100950.78
2023-04-10T21:17:45.844Z,100938.88
2023-04-10T21:21:47.313Z,100940.63
2023-04-10T21:25:52.655Z,100944.41
2023-04-10T21:29:54.106Z,100942.06
2023-04-10T21:33:55.637Z,100935.25
2023-04-10T21:38:01.805Z,100922.81
2023-04-10T21:42:03.614Z,100919.75
2023-04-10T21:46:06.110Z,100912.53
2023-04-10T21:50:08.121Z,100913.31
2023-04-10T21:54:09.561Z,100899.19
2023-04-10T21:58:11.029Z,100889.41
2023-04-10T22:02:13.145Z,100882.53
2023-04-10T22:06:14.865Z,100879.66
2023-04-10T22:10:16.490Z,100879.66
2023-04-10T22:14:20.080Z,100859.72
2023-04-10T22:18:22.853Z,100861.03
2023-04-10T22:22:24.383Z,100858.16
2023-04-10T22:26:26.057Z,100841.19
2023-04-10T22:30:27.590Z,100826.44
2023-04-10T22:34:29.035Z,100818.44
2023-04-10T22:38:30.790Z,100810.34
2023-04-10T22:42:32.207Z,100808.00
2023-04-10T22:46:33.993Z,100809.91
2023-04-10T22:50:35.506Z,100814.16
2023-04-10T22:54:36.969Z,100804.44
2023-04-10T22:58:39.705Z,100801.91
2023-04-10T23:02:41.341Z,100800.31
2023-04-10T23:06:42.894Z,100794.91
2023-04-10T23:10:44.346Z,100780.19
2023-04-10T23:14:45.786Z,100779.41
2023-04-10T23:18:47.177Z,100775.84
2023-04-10T23:22:48.650Z,100768.16
2023-04-10T23:26:50.132Z,100750.75
2023-04-10T23:30:51.629Z,100749.16
2023-04-10T23:34:53.056Z,100736.03
2023-04-10T23:38:55.019Z,100719.81
2023-04-10T23:42:56.767Z,100705.38
2023-04-10T23:46:58.258Z,100705.19
2023-04-10T23:51:04.561Z,100695.81
2023-04-10T23:55:06.404Z,100678.97
2023-04-10T23:59:07.881Z,100682.16
